KAL092 KBOS-RKSI
Flight info
| Callsign | KAL092 |
|---|---|
| Flight time | N/A |
| Altitude | 32000 |
| Route | HYLND7 HYLND DCT PUXER/N0484F300 DCT 54N078W 57N080W/N0487F320 64N090W 68N100W 70N110W 71N120W/N0477F340 72N130W DCT TAYTA DCT 7130N14730W 69N160W DCT JUJXI DCT MARCC/N0476F360 R338 NATES R220 NIPPI/N0474F370 R220 NANNO/N0471F380 R220 NODAN R217 ASTER Y514 SDE Y512 GTC Y142 SAMON Y14 SUGNO Y16 SAPRA Y685 GUKDO |
| Aircraft | B77W/H-SDE1E2E3FGHIJ2J3J4J5M1RWXY/LB1D1 |
Departure
| Time | 2026-05-06 12:16 |
|---|---|
| Airport | Boston Logan International Airport (KBOS) |
Arrival
| Time | N/A |
|---|---|
| Airport | Incheon International Airport (RKSI) |
| Time | Latitude | Longitude | Altitude | Speed | Heading |
|---|---|---|---|---|---|
| 2026-05-06 11:50 | 42.37135 | -71.02087 | 30 ft | 0 kts | 176° |
| 2026-05-06 12:04 | 42.37136 | -71.02087 | 30 ft | 1 kts | 176° |
| 2026-05-06 12:04 | 42.37152 | -71.02089 | 30 ft | 3 kts | 170° |
| 2026-05-06 12:04 | 42.37171 | -71.02094 | 28 ft | 3 kts | 158° |
| 2026-05-06 12:04 | 42.37188 | -71.02105 | 28 ft | 3 kts | 143° |
| 2026-05-06 12:05 | 42.37201 | -71.02121 | 28 ft | 3 kts | 124° |
| 2026-05-06 12:05 | 42.37209 | -71.02141 | 27 ft | 3 kts | 99° |
| 2026-05-06 12:05 | 42.37210 | -71.02160 | 28 ft | 3 kts | 71° |
| 2026-05-06 12:05 | 42.37205 | -71.02175 | 26 ft | 1 kts | 44° |
| 2026-05-06 12:06 | 42.37203 | -71.02178 | 28 ft | 2 kts | 43° |
| 2026-05-06 12:08 | 42.37211 | -71.02168 | 30 ft | 4 kts | 43° |
| 2026-05-06 12:08 | 42.37227 | -71.02139 | 30 ft | 4 kts | 59° |
| 2026-05-06 12:08 | 42.37237 | -71.02105 | 30 ft | 4 kts | 76° |
| 2026-05-06 12:08 | 42.37237 | -71.02066 | 30 ft | 4 kts | 94° |
| 2026-05-06 12:09 | 42.37233 | -71.02026 | 30 ft | 4 kts | 92° |
| 2026-05-06 12:09 | 42.37225 | -71.01971 | 30 ft | 12 kts | 111° |
| 2026-05-06 12:09 | 42.37172 | -71.01852 | 30 ft | 15 kts | 123° |
| 2026-05-06 12:09 | 42.37114 | -71.01733 | 30 ft | 15 kts | 123° |
| 2026-05-06 12:10 | 42.37048 | -71.01623 | 30 ft | 15 kts | 134° |
| 2026-05-06 12:10 | 42.36974 | -71.01521 | 30 ft | 15 kts | 131° |
| 2026-05-06 12:10 | 42.36901 | -71.01419 | 30 ft | 15 kts | 135° |
| 2026-05-06 12:10 | 42.36843 | -71.01334 | 30 ft | 10 kts | 117° |
| 2026-05-06 12:11 | 42.36864 | -71.01252 | 30 ft | 10 kts | 47° |
| 2026-05-06 12:11 | 42.36932 | -71.01169 | 30 ft | 18 kts | 41° |
| 2026-05-06 12:11 | 42.37048 | -71.01069 | 30 ft | 20 kts | 24° |
| 2026-05-06 12:11 | 42.37173 | -71.00989 | 30 ft | 20 kts | 26° |
| 2026-05-06 12:12 | 42.37298 | -71.00909 | 30 ft | 20 kts | 24° |
| 2026-05-06 12:12 | 42.37429 | -71.00846 | 30 ft | 20 kts | 20° |
| 2026-05-06 12:12 | 42.37559 | -71.00782 | 29 ft | 20 kts | 20° |
| 2026-05-06 12:12 | 42.37689 | -71.00718 | 30 ft | 20 kts | 20° |
| 2026-05-06 12:13 | 42.37800 | -71.00664 | 30 ft | 12 kts | 26° |
| 2026-05-06 12:13 | 42.37832 | -71.00573 | 30 ft | 12 kts | 102° |
| 2026-05-06 12:13 | 42.37804 | -71.00468 | 30 ft | 12 kts | 110° |
| 2026-05-06 12:13 | 42.37776 | -71.00363 | 30 ft | 12 kts | 109° |
| 2026-05-06 12:14 | 42.37748 | -71.00258 | 30 ft | 12 kts | 110° |
| 2026-05-06 12:14 | 42.37720 | -71.00153 | 30 ft | 12 kts | 110° |
| 2026-05-06 12:14 | 42.37692 | -71.00049 | 30 ft | 12 kts | 110° |
| 2026-05-06 12:14 | 42.37651 | -70.99966 | 30 ft | 10 kts | 166° |
| 2026-05-06 12:15 | 42.37624 | -70.99970 | 30 ft | 0 kts | 193° |
| 2026-05-06 12:15 | 42.37611 | -70.99975 | 30 ft | 9 kts | 196° |
| 2026-05-06 12:15 | 42.37420 | -71.00066 | 31 ft | 64 kts | 199° |
| 2026-05-06 12:15 | 42.36724 | -71.00403 | 30 ft | 147 kts | 199° |
| 2026-05-06 12:16 | 42.35565 | -71.00967 | 395 ft | 182 kts | 201° |
| 2026-05-06 12:16 | 42.34447 | -71.01481 | 1887 ft | 163 kts | 195° |
| 2026-05-06 12:16 | 42.33235 | -71.01322 | 2621 ft | 192 kts | 167° |
| 2026-05-06 12:16 | 42.32100 | -71.00158 | 2922 ft | 225 kts | 135° |
| 2026-05-06 12:17 | 42.31495 | -70.98089 | 3319 ft | 244 kts | 114° |
| 2026-05-06 12:17 | 42.31267 | -70.95738 | 3672 ft | 267 kts | 97° |
| 2026-05-06 12:17 | 42.31465 | -70.93137 | 4015 ft | 287 kts | 84° |
| 2026-05-06 12:17 | 42.31879 | -70.90463 | 4676 ft | 295 kts | 82° |
| 2026-05-06 12:18 | 42.32326 | -70.87736 | 5400 ft | 299 kts | 83° |
| 2026-05-06 12:18 | 42.32765 | -70.84968 | 6167 ft | 304 kts | 83° |
| 2026-05-06 12:18 | 42.33194 | -70.82153 | 6833 ft | 307 kts | 83° |
| 2026-05-06 12:18 | 42.33624 | -70.79308 | 7439 ft | 311 kts | 82° |
| 2026-05-06 12:19 | 42.34447 | -70.76571 | 7910 ft | 324 kts | 53° |
| 2026-05-06 12:19 | 42.36159 | -70.74585 | 8425 ft | 327 kts | 22° |
| 2026-05-06 12:19 | 42.38285 | -70.73576 | 8983 ft | 326 kts | 12° |
| 2026-05-06 12:19 | 42.40481 | -70.72694 | 9536 ft | 332 kts | 12° |
| 2026-05-06 12:20 | 42.41948 | -70.72097 | 9968 ft | 333 kts | 12° |
| 2026-05-06 12:20 | 42.44195 | -70.71457 | 10411 ft | 330 kts | 353° |
| 2026-05-06 12:20 | 42.46438 | -70.72024 | 10534 ft | 330 kts | 328° |
| 2026-05-06 12:20 | 42.48544 | -70.73408 | 10693 ft | 345 kts | 326° |
| 2026-05-06 12:21 | 42.50764 | -70.74899 | 10860 ft | 367 kts | 326° |
| 2026-05-06 12:21 | 42.53028 | -70.76594 | 11045 ft | 373 kts | 314° |
| 2026-05-06 12:21 | 42.54728 | -70.79158 | 11527 ft | 361 kts | 296° |
| 2026-05-06 12:21 | 42.56099 | -70.82064 | 12097 ft | 369 kts | 296° |
| 2026-05-06 12:22 | 42.57502 | -70.84995 | 12863 ft | 371 kts | 296° |
| 2026-05-06 12:22 | 42.58920 | -70.87934 | 13678 ft | 374 kts | 296° |
| 2026-05-06 12:22 | 42.60356 | -70.90896 | 14357 ft | 377 kts | 296° |
| 2026-05-06 12:22 | 42.61807 | -70.93885 | 15022 ft | 381 kts | 297° |
| 2026-05-06 12:23 | 42.63275 | -70.96902 | 15693 ft | 384 kts | 297° |
| 2026-05-06 12:23 | 42.64754 | -70.99945 | 16370 ft | 388 kts | 297° |
| 2026-05-06 12:23 | 42.66246 | -71.03013 | 17026 ft | 391 kts | 297° |
| 2026-05-06 12:23 | 42.67752 | -71.06112 | 17685 ft | 395 kts | 297° |
| 2026-05-06 12:24 | 42.69272 | -71.09244 | 18307 ft | 399 kts | 298° |
| 2026-05-06 12:24 | 42.70804 | -71.12404 | 18876 ft | 402 kts | 297° |
| 2026-05-06 12:24 | 42.72345 | -71.15585 | 19453 ft | 404 kts | 297° |
| 2026-05-06 12:24 | 42.73876 | -71.18749 | 20005 ft | 407 kts | 297° |
| 2026-05-06 12:25 | 42.75440 | -71.21984 | 20562 ft | 410 kts | 297° |
| 2026-05-06 12:25 | 42.77037 | -71.25211 | 21072 ft | 413 kts | 302° |
| 2026-05-06 12:25 | 42.79147 | -71.27997 | 21413 ft | 435 kts | 320° |
| 2026-05-06 12:25 | 42.81873 | -71.29895 | 21852 ft | 445 kts | 331° |
| 2026-05-06 12:26 | 42.84762 | -71.31505 | 22309 ft | 450 kts | 331° |
| 2026-05-06 12:26 | 42.87669 | -71.33125 | 22789 ft | 454 kts | 331° |
| 2026-05-06 12:26 | 42.90598 | -71.34767 | 23331 ft | 456 kts | 331° |
| 2026-05-06 12:26 | 42.93539 | -71.36432 | 23792 ft | 459 kts | 331° |
| 2026-05-06 12:27 | 42.96490 | -71.38117 | 24258 ft | 460 kts | 330° |
| 2026-05-06 12:27 | 42.99446 | -71.39816 | 24719 ft | 462 kts | 330° |
| 2026-05-06 12:27 | 43.02410 | -71.41528 | 25172 ft | 463 kts | 330° |
| 2026-05-06 12:27 | 43.05380 | -71.43249 | 25642 ft | 464 kts | 330° |
| 2026-05-06 12:28 | 43.08360 | -71.44980 | 26076 ft | 466 kts | 330° |
| 2026-05-06 12:28 | 43.11351 | -71.46719 | 26497 ft | 468 kts | 330° |
| 2026-05-06 12:28 | 43.14350 | -71.48465 | 26903 ft | 470 kts | 330° |
| 2026-05-06 12:28 | 43.17362 | -71.50221 | 27323 ft | 471 kts | 330° |
| 2026-05-06 12:29 | 43.20387 | -71.51984 | 27733 ft | 473 kts | 330° |
| 2026-05-06 12:29 | 43.23416 | -71.53752 | 28135 ft | 474 kts | 330° |
| 2026-05-06 12:29 | 43.26458 | -71.55529 | 28502 ft | 476 kts | 330° |
| 2026-05-06 12:29 | 43.29511 | -71.57315 | 28860 ft | 477 kts | 330° |
| 2026-05-06 12:30 | 43.32569 | -71.59105 | 29215 ft | 479 kts | 330° |
| 2026-05-06 12:30 | 43.35625 | -71.60895 | 29675 ft | 477 kts | 330° |
| 2026-05-06 12:30 | 43.38677 | -71.62682 | 30168 ft | 474 kts | 329° |
| 2026-05-06 12:30 | 43.41694 | -71.64450 | 30638 ft | 470 kts | 329° |
| 2026-05-06 12:31 | 43.44692 | -71.66211 | 31073 ft | 468 kts | 329° |
| 2026-05-06 12:31 | 43.47678 | -71.67968 | 31455 ft | 466 kts | 329° |
| 2026-05-06 12:31 | 43.50614 | -71.69698 | 31798 ft | 465 kts | 329° |
| 2026-05-06 12:31 | 43.53637 | -71.71486 | 31837 ft | 468 kts | 329° |
| 2026-05-06 12:32 | 43.59567 | -71.74994 | 31852 ft | 464 kts | 329° |
| 2026-05-06 12:32 | 43.65727 | -71.77772 | 31855 ft | 476 kts | 343° |
| 2026-05-06 12:33 | 43.72470 | -71.77858 | 31855 ft | 497 kts | 1° |
| 2026-05-06 12:33 | 43.79185 | -71.75049 | 31858 ft | 515 kts | 19° |
| 2026-05-06 12:34 | 43.85401 | -71.69872 | 31853 ft | 526 kts | 28° |
| 2026-05-06 12:34 | 43.91425 | -71.64061 | 31851 ft | 529 kts | 30° |
| 2026-05-06 12:35 | 43.97450 | -71.58155 | 31856 ft | 531 kts | 30° |
| 2026-05-06 12:35 | 44.03496 | -71.52216 | 31841 ft | 532 kts | 30° |
| 2026-05-06 12:36 | 44.09546 | -71.46280 | 31845 ft | 533 kts | 30° |
| 2026-05-06 12:36 | 44.15605 | -71.40348 | 31847 ft | 533 kts | 30° |
| 2026-05-06 12:37 | 44.21669 | -71.34427 | 31849 ft | 532 kts | 30° |
| 2026-05-06 12:37 | 44.27732 | -71.28520 | 31847 ft | 532 kts | 30° |
| 2026-05-06 12:38 | 44.33763 | -71.22656 | 31852 ft | 532 kts | 30° |
| 2026-05-06 12:38 | 44.39885 | -71.16710 | 31854 ft | 533 kts | 30° |
| 2026-05-06 12:39 | 44.45970 | -71.10794 | 31871 ft | 532 kts | 30° |
| 2026-05-06 12:39 | 44.52019 | -71.04906 | 31868 ft | 533 kts | 29° |
| 2026-05-06 12:40 | 44.58154 | -70.98926 | 31860 ft | 534 kts | 29° |
| 2026-05-06 12:40 | 44.64212 | -70.93006 | 31870 ft | 533 kts | 29° |
| 2026-05-06 12:41 | 44.70292 | -70.87041 | 31863 ft | 533 kts | 29° |
| 2026-05-06 12:41 | 44.76386 | -70.81096 | 31856 ft | 530 kts | 25° |
| 2026-05-06 12:42 | 44.79603 | -70.78674 | 31863 ft | 520 kts | 14° |
| 2026-05-06 12:42 | 44.83020 | -70.77392 | 31865 ft | 499 kts | 356° |
| 2026-05-06 12:42 | 44.86420 | -70.77403 | 31872 ft | 482 kts | 344° |
| 2026-05-06 12:42 | 44.89650 | -70.78362 | 31870 ft | 467 kts | 332° |
| 2026-05-06 12:43 | 44.92570 | -70.80155 | 31889 ft | 455 kts | 325° |
| 2026-05-06 12:43 | 44.95437 | -70.82089 | 31872 ft | 458 kts | 325° |
| 2026-05-06 12:43 | 45.01223 | -70.85947 | 31882 ft | 462 kts | 326° |
| 2026-05-06 12:44 | 45.07082 | -70.89790 | 31881 ft | 465 kts | 326° |
| 2026-05-06 12:44 | 45.12965 | -70.93619 | 31874 ft | 466 kts | 326° |
| 2026-05-06 12:45 | 45.18857 | -70.97453 | 31868 ft | 465 kts | 326° |
| 2026-05-06 12:46 | 45.27615 | -71.03171 | 31871 ft | 463 kts | 326° |
| 2026-05-06 12:46 | 45.33455 | -71.06999 | 31877 ft | 462 kts | 326° |
| 2026-05-06 12:47 | 45.39286 | -71.10831 | 31890 ft | 461 kts | 326° |
| 2026-05-06 12:47 | 45.45105 | -71.14667 | 31892 ft | 462 kts | 325° |
| 2026-05-06 12:48 | 45.50927 | -71.18510 | 31897 ft | 463 kts | 325° |
| 2026-05-06 12:48 | 45.56779 | -71.22382 | 31900 ft | 464 kts | 325° |
| 2026-05-06 12:49 | 45.62656 | -71.26280 | 31889 ft | 465 kts | 325° |
| 2026-05-06 12:49 | 45.68537 | -71.30189 | 31884 ft | 467 kts | 325° |
| 2026-05-06 12:50 | 45.74433 | -71.34117 | 31886 ft | 468 kts | 325° |
| 2026-05-06 12:50 | 45.80351 | -71.38068 | 31890 ft | 469 kts | 325° |
| 2026-05-06 12:51 | 45.86256 | -71.42020 | 31898 ft | 470 kts | 325° |
| 2026-05-06 12:51 | 45.92197 | -71.46005 | 31900 ft | 470 kts | 325° |
| 2026-05-06 12:52 | 45.98125 | -71.49992 | 31907 ft | 471 kts | 325° |
| 2026-05-06 12:52 | 46.04066 | -71.53996 | 31909 ft | 472 kts | 325° |
| 2026-05-06 12:53 | 46.09998 | -71.58005 | 31903 ft | 472 kts | 325° |
| 2026-05-06 12:53 | 46.15949 | -71.62035 | 31903 ft | 472 kts | 324° |
| 2026-05-06 12:54 | 46.21898 | -71.66075 | 31899 ft | 473 kts | 324° |
| 2026-05-06 12:54 | 46.27855 | -71.70131 | 31900 ft | 474 kts | 324° |
| 2026-05-06 12:55 | 46.33820 | -71.74200 | 31896 ft | 475 kts | 324° |
| 2026-05-06 12:55 | 46.39800 | -71.78290 | 31896 ft | 476 kts | 324° |
| 2026-05-06 12:56 | 46.45788 | -71.82396 | 31896 ft | 476 kts | 324° |
| 2026-05-06 12:56 | 46.51783 | -71.86516 | 31883 ft | 477 kts | 324° |
| 2026-05-06 12:57 | 46.57783 | -71.90648 | 31887 ft | 477 kts | 323° |
| 2026-05-06 12:57 | 46.63786 | -71.94794 | 31886 ft | 478 kts | 323° |
| 2026-05-06 12:58 | 46.69794 | -71.98953 | 31882 ft | 478 kts | 323° |
| 2026-05-06 12:58 | 46.75796 | -72.03118 | 31884 ft | 478 kts | 323° |
| 2026-05-06 12:59 | 46.81792 | -72.07290 | 31877 ft | 477 kts | 323° |
| 2026-05-06 12:59 | 46.87786 | -72.11471 | 31871 ft | 477 kts | 323° |
| 2026-05-06 13:00 | 46.93774 | -72.15658 | 31874 ft | 476 kts | 322° |
| 2026-05-06 13:00 | 46.99738 | -72.19837 | 31874 ft | 475 kts | 322° |
| 2026-05-06 13:01 | 47.05698 | -72.24026 | 31875 ft | 475 kts | 322° |
| 2026-05-06 13:01 | 47.11641 | -72.28212 | 31873 ft | 474 kts | 322° |
| 2026-05-06 13:02 | 47.17592 | -72.32419 | 31882 ft | 475 kts | 322° |
| 2026-05-06 13:02 | 47.23550 | -72.36640 | 31881 ft | 476 kts | 322° |
| 2026-05-06 13:03 | 47.29517 | -72.40874 | 31874 ft | 476 kts | 322° |
| 2026-05-06 13:03 | 47.35473 | -72.45111 | 31868 ft | 475 kts | 322° |
| 2026-05-06 13:04 | 47.41393 | -72.49332 | 31865 ft | 475 kts | 322° |
| 2026-05-06 13:04 | 47.47372 | -72.53608 | 31861 ft | 475 kts | 322° |
| 2026-05-06 13:05 | 47.53313 | -72.57868 | 31860 ft | 474 kts | 321° |
| 2026-05-06 13:05 | 47.59255 | -72.62140 | 31875 ft | 474 kts | 321° |
| 2026-05-06 13:06 | 47.65186 | -72.66415 | 31878 ft | 475 kts | 321° |
| 2026-05-06 13:06 | 47.70125 | -72.69984 | 31873 ft | 475 kts | 321° |
| 2026-05-06 13:07 | 47.76062 | -72.74281 | 31881 ft | 475 kts | 321° |
| 2026-05-06 13:07 | 47.82006 | -72.78598 | 31871 ft | 476 kts | 321° |
| 2026-05-06 13:08 | 47.87953 | -72.82927 | 31866 ft | 476 kts | 321° |
| 2026-05-06 13:08 | 47.93904 | -72.87269 | 31866 ft | 477 kts | 321° |
| 2026-05-06 13:09 | 47.99875 | -72.91636 | 31865 ft | 478 kts | 321° |
| 2026-05-06 13:09 | 48.05813 | -72.95993 | 31842 ft | 479 kts | 321° |
| 2026-05-06 13:10 | 48.11832 | -73.00416 | 31844 ft | 479 kts | 321° |
| 2026-05-06 13:10 | 48.17822 | -73.04831 | 31846 ft | 480 kts | 321° |
| 2026-05-06 13:11 | 48.23763 | -73.09224 | 31839 ft | 480 kts | 321° |
| 2026-05-06 13:11 | 48.29768 | -73.13675 | 31845 ft | 481 kts | 321° |
| 2026-05-06 13:12 | 48.35767 | -73.18131 | 31840 ft | 481 kts | 321° |
| 2026-05-06 13:12 | 48.41759 | -73.22594 | 31836 ft | 482 kts | 320° |
| 2026-05-06 13:13 | 48.47786 | -73.27097 | 31826 ft | 482 kts | 320° |
| 2026-05-06 13:13 | 48.53782 | -73.31588 | 31825 ft | 483 kts | 320° |
| 2026-05-06 13:14 | 48.59809 | -73.36112 | 31834 ft | 482 kts | 320° |
| 2026-05-06 13:14 | 48.65791 | -73.40616 | 31811 ft | 482 kts | 320° |
| 2026-05-06 13:15 | 48.71814 | -73.45164 | 31822 ft | 482 kts | 320° |
| 2026-05-06 13:15 | 48.77808 | -73.49699 | 31813 ft | 481 kts | 320° |
| 2026-05-06 13:16 | 48.83780 | -73.54231 | 31817 ft | 480 kts | 320° |
| 2026-05-06 13:16 | 48.89736 | -73.58764 | 31815 ft | 478 kts | 320° |
| 2026-05-06 13:17 | 48.95656 | -73.63282 | 31815 ft | 477 kts | 320° |
| 2026-05-06 13:17 | 49.01595 | -73.67826 | 31804 ft | 477 kts | 320° |
| 2026-05-06 13:18 | 49.07536 | -73.72385 | 31796 ft | 476 kts | 320° |
| 2026-05-06 13:18 | 49.13391 | -73.76890 | 31801 ft | 475 kts | 320° |
| 2026-05-06 13:19 | 49.19340 | -73.81478 | 31794 ft | 475 kts | 320° |
| 2026-05-06 13:19 | 49.25230 | -73.86034 | 31795 ft | 474 kts | 320° |
| 2026-05-06 13:20 | 49.31079 | -73.90572 | 31796 ft | 475 kts | 321° |